Time;durP1;ratioP1;P1;durP2;ratioP2;P2;SDS_P1;SDS_P2;PMS_P1;PMS_P2;Temp;Humidity;BMP_temperature;BMP_pressure;BME280_temperature;BME280_humidity;BME280_pressure;Samples;Min_cycle;Max_cycle;Signal;HPM_P1;HPM_P2
2022/04/02 00:00:53;;;;;;;4.00;2.50;;;;;;;;;;5008648;28;100288;-81
2022/04/02 00:03:20;;;;;;;3.88;2.30;;;;;;;;;;5009318;28;97826;-81
2022/04/02 00:05:46;;;;;;;4.55;2.45;;;;;;;;;;5009380;28;99525;-81
2022/04/02 00:08:12;;;;;;;4.85;2.15;;;;;;;;;;5009380;28;99649;-81
2022/04/02 00:10:39;;;;;;;3.78;2.85;;;;;;;;;;5007044;28;100002;-81
2022/04/02 00:13:05;;;;;;;6.15;1.88;;;;;;;;;;5007132;28;100263;-81
2022/04/02 00:15:31;;;;;;;3.15;2.92;;;;;;;;;;5008330;28;98537;-78
2022/04/02 00:17:58;;;;;;;2.30;2.13;;;;;;;;;;5008364;28;99853;-81
2022/04/02 00:20:25;;;;;;;3.15;2.28;;;;;;;;;;5007158;28;100457;-79
2022/04/02 00:25:37;;;;;;;5.35;2.40;;;;;;;;;;5008654;28;99328;-79
2022/04/02 00:28:03;;;;;;;2.30;2.10;;;;;;;;;;5008155;28;99570;-80
2022/04/02 00:30:30;;;;;;;5.95;2.17;;;;;;;;;;5009350;28;99878;-79
2022/04/02 00:32:56;;;;;;;7.20;2.33;;;;;;;;;;5008089;28;99222;-80
2022/04/02 00:35:23;;;;;;;2.22;2.13;;;;;;;;;;5007383;28;99361;-80
2022/04/02 00:37:50;;;;;;;5.38;2.90;;;;;;;;;;5007851;28;100685;-80
2022/04/02 00:40:16;;;;;;;3.47;2.28;;;;;;;;;;5007938;28;98938;-80
2022/04/02 00:42:44;;;;;;;2.60;2.40;;;;;;;;;;5008385;28;98683;-80
2022/04/02 00:45:11;;;;;;;3.13;2.83;;;;;;;;;;5008170;28;100254;-80
2022/04/02 00:47:39;;;;;;;3.88;2.17;;;;;;;;;;5006033;28;101443;-79
2022/04/02 00:50:05;;;;;;;3.55;2.60;;;;;;;;;;5011710;28;98681;-79
2022/04/02 00:52:32;;;;;;;3.13;2.25;;;;;;;;;;5007497;28;99676;-79
2022/04/02 00:54:58;;;;;;;2.63;2.42;;;;;;;;;;5009446;28;99063;-79
2022/04/02 00:57:25;;;;;;;3.20;2.42;;;;;;;;;;5008006;28;99623;-79
2022/04/02 00:59:51;;;;;;;4.32;2.33;;;;;;;;;;5006293;28;103268;-79
2022/04/02 01:02:19;;;;;;;6.70;2.70;;;;;;;;;;5007110;28;99103;-79
2022/04/02 01:04:48;;;;;;;6.63;2.40;;;;;;;;;;5005619;28;100209;-79
2022/04/02 01:07:16;;;;;;;1.85;1.77;;;;;;;;;;5006319;28;101541;-79
2022/04/02 01:09:43;;;;;;;2.55;2.38;;;;;;;;;;5007495;28;98621;-79
2022/04/02 01:12:10;;;;;;;3.25;1.92;;;;;;;;;;5009540;28;102121;-80
2022/04/02 01:14:40;;;;;;;3.80;2.70;;;;;;;;;;5007549;28;98655;-79
2022/04/02 01:17:20;;;;;;;2.45;2.22;;;;;;;;;;5006189;28;101060;-79
2022/04/02 01:19:47;;;;;;;2.28;2.00;;;;;;;;;;5005521;28;101721;-79
2022/04/02 01:22:22;;;;;;;2.40;2.20;;;;;;;;;;5020683;27;98554;-79
2022/04/02 01:24:51;;;;;;;2.95;2.65;;;;;;;;;;5005095;28;101458;-80
2022/04/02 01:27:19;;;;;;;5.32;2.97;;;;;;;;;;5005490;28;101367;-79
2022/04/02 01:29:52;;;;;;;3.33;2.45;;;;;;;;;;5007237;28;98574;-79
2022/04/02 01:32:20;;;;;;;2.10;1.90;;;;;;;;;;5004693;28;99850;-77
2022/04/02 01:34:53;;;;;;;3.58;2.15;;;;;;;;;;5006582;28;101792;-79
2022/04/02 01:37:19;;;;;;;3.72;2.83;;;;;;;;;;5001467;28;101830;-79
2022/04/02 01:39:51;;;;;;;3.93;2.90;;;;;;;;;;5006913;28;101974;-79
2022/04/02 01:42:24;;;;;;;5.82;2.75;;;;;;;;;;5006141;28;98141;-79
2022/04/02 01:45:11;;;;;;;2.15;2.05;;;;;;;;;;5006953;28;100402;-79
2022/04/02 01:47:50;;;;;;;2.65;2.38;;;;;;;;;;5005439;28;101167;-79
2022/04/02 01:50:18;;;;;;;2.67;2.47;;;;;;;;;;5006481;28;100689;-79
2022/04/02 01:52:48;;;;;;;3.33;2.90;;;;;;;;;;5005029;28;102132;-79
2022/04/02 01:55:17;;;;;;;3.05;2.75;;;;;;;;;;5005848;28;101277;-79
2022/04/02 01:57:49;;;;;;;3.00;2.80;;;;;;;;;;5009496;28;99159;-79
2022/04/02 02:00:24;;;;;;;5.70;3.10;;;;;;;;;;5003322;28;101481;-79
2022/04/02 02:02:51;;;;;;;8.43;3.00;;;;;;;;;;5002483;28;98594;-79
2022/04/02 02:05:17;;;;;;;2.72;2.40;;;;;;;;;;5006824;28;99915;-79
2022/04/02 02:07:50;;;;;;;5.75;2.45;;;;;;;;;;5005398;28;100677;-79
2022/04/02 02:10:29;;;;;;;3.43;2.67;;;;;;;;;;5005700;28;100140;-79
2022/04/02 02:13:07;;;;;;;2.85;2.65;;;;;;;;;;5006869;28;103095;-80
2022/04/02 02:15:40;;;;;;;4.20;2.92;;;;;;;;;;5004430;28;102542;-79
2022/04/02 02:18:06;;;;;;;4.85;2.75;;;;;;;;;;5006864;28;99116;-79
2022/04/02 02:20:33;;;;;;;3.25;2.97;;;;;;;;;;5009876;28;101923;-79
2022/04/02 02:22:59;;;;;;;6.18;2.72;;;;;;;;;;5005363;28;100074;-79
2022/04/02 02:25:26;;;;;;;2.47;2.28;;;;;;;;;;5006262;28;99996;-79
2022/04/02 02:27:52;;;;;;;2.38;2.17;;;;;;;;;;5005750;28;101718;-79
2022/04/02 02:30:22;;;;;;;3.15;2.13;;;;;;;;;;5005557;28;98589;-79
2022/04/02 02:35:49;;;;;;;2.65;2.45;;;;;;;;;;5006550;28;101489;-79
2022/04/02 02:35:50;;;;;;;5.68;2.55;;;;;;;;;;5005933;28;101286;-79
2022/04/02 02:38:21;;;;;;;3.88;2.40;;;;;;;;;;5008151;28;98703;-79
2022/04/02 02:40:58;;;;;;;2.42;2.22;;;;;;;;;;5017293;28;101108;-79
2022/04/02 02:43:32;;;;;;;2.78;1.95;;;;;;;;;;5011783;28;100243;-79
2022/04/02 02:46:08;;;;;;;2.30;2.15;;;;;;;;;;5009939;28;102301;-79
2022/04/02 02:48:34;;;;;;;2.33;2.13;;;;;;;;;;5010427;28;99053;-79
2022/04/02 02:51:01;;;;;;;2.50;2.40;;;;;;;;;;5010939;28;98550;-79
2022/04/02 02:53:27;;;;;;;4.53;2.25;;;;;;;;;;5009547;28;101916;-78
2022/04/02 02:55:53;;;;;;;6.78;2.58;;;;;;;;;;5009504;28;100440;-79
2022/04/02 02:58:20;;;;;;;2.63;2.42;;;;;;;;;;5008402;28;98311;-79
2022/04/02 03:00:46;;;;;;;2.55;2.45;;;;;;;;;;5009692;28;99280;-79
2022/04/02 03:03:22;;;;;;;4.60;2.80;;;;;;;;;;5011672;28;102227;-78
2022/04/02 03:05:51;;;;;;;4.32;2.60;;;;;;;;;;5008786;28;101036;-78
2022/04/02 03:08:19;;;;;;;2.75;2.50;;;;;;;;;;5009155;28;99182;-78
2022/04/02 03:10:57;;;;;;;2.80;2.60;;;;;;;;;;5009615;28;99135;-78
2022/04/02 03:13:27;;;;;;;4.10;2.90;;;;;;;;;;5008548;28;99311;-78
2022/04/02 03:16:03;;;;;;;7.50;2.85;;;;;;;;;;5009173;28;101832;-78
2022/04/02 03:18:30;;;;;;;3.30;3.00;;;;;;;;;;5008289;28;98721;-78
2022/04/02 03:20:58;;;;;;;3.40;2.55;;;;;;;;;;5008803;28;100589;-78
2022/04/02 03:23:26;;;;;;;2.95;2.50;;;;;;;;;;5008499;28;101090;-78
2022/04/02 03:25:53;;;;;;;2.60;2.40;;;;;;;;;;5012423;28;98536;-78
2022/04/02 03:28:20;;;;;;;6.75;2.88;;;;;;;;;;5006852;28;102307;-78
2022/04/02 03:30:47;;;;;;;2.45;2.25;;;;;;;;;;5007958;28;99285;-78
2022/04/02 03:33:14;;;;;;;2.92;2.72;;;;;;;;;;5006253;28;100889;-79
2022/04/02 03:35:43;;;;;;;5.20;2.55;;;;;;;;;;5008592;28;102033;-78
2022/04/02 03:38:09;;;;;;;2.97;2.75;;;;;;;;;;5009381;28;98473;-78
2022/04/02 03:40:41;;;;;;;3.20;2.58;;;;;;;;;;5007715;28;101061;-78
2022/04/02 03:43:09;;;;;;;3.08;2.55;;;;;;;;;;5007460;28;101471;-78
2022/04/02 03:45:36;;;;;;;3.78;2.85;;;;;;;;;;5007679;28;98624;-78
2022/04/02 03:48:04;;;;;;;2.78;2.58;;;;;;;;;;5010111;28;101043;-78
2022/04/02 03:50:37;;;;;;;2.72;2.53;;;;;;;;;;5008949;28;98542;-78
2022/04/02 03:53:05;;;;;;;2.58;2.38;;;;;;;;;;5008130;28;101129;-78
2022/04/02 03:55:36;;;;;;;5.18;2.58;;;;;;;;;;5024129;28;102415;-78
2022/04/02 03:58:11;;;;;;;4.47;2.47;;;;;;;;;;5007457;28;99193;-78
2022/04/02 04:00:38;;;;;;;3.13;2.70;;;;;;;;;;5007334;28;101547;-78
2022/04/02 04:03:09;;;;;;;4.15;2.10;;;;;;;;;;5024249;27;101241;-78
2022/04/02 04:05:42;;;;;;;3.10;2.30;;;;;;;;;;5008278;28;98619;-78
2022/04/02 04:08:09;;;;;;;4.00;2.50;;;;;;;;;;5024229;28;99908;-78
2022/04/02 04:10:37;;;;;;;3.42;2.78;;;;;;;;;;5011365;28;100158;-78
2022/04/02 04:13:04;;;;;;;3.92;2.67;;;;;;;;;;5007937;28;100918;-78
2022/04/02 04:15:33;;;;;;;3.05;2.75;;;;;;;;;;5022338;28;102117;-78
2022/04/02 04:18:03;;;;;;;4.68;3.00;;;;;;;;;;5023901;28;100705;-78
2022/04/02 04:20:35;;;;;;;4.03;2.70;;;;;;;;;;5007284;28;100908;-78
2022/04/02 04:23:04;;;;;;;3.42;2.78;;;;;;;;;;5007597;28;101658;-79
2022/04/02 04:25:30;;;;;;;3.03;2.83;;;;;;;;;;5006857;28;99666;-79
2022/04/02 04:28:01;;;;;;;4.65;3.20;;;;;;;;;;5009798;28;100431;-78
2022/04/02 04:30:29;;;;;;;5.25;2.78;;;;;;;;;;5006283;28;101462;-78
2022/04/02 04:32:57;;;;;;;4.05;3.15;;;;;;;;;;5009913;28;98610;-78
2022/04/02 04:35:29;;;;;;;6.22;2.78;;;;;;;;;;5007851;28;100328;-78
2022/04/02 04:37:56;;;;;;;2.95;2.75;;;;;;;;;;5008142;28;97833;-78
2022/04/02 04:40:25;;;;;;;6.00;2.53;;;;;;;;;;5007832;28;100544;-78
2022/04/02 04:42:53;;;;;;;2.90;2.72;;;;;;;;;;5007106;28;101525;-78
2022/04/02 04:45:28;;;;;;;5.72;3.30;;;;;;;;;;5006745;28;99950;-78
2022/04/02 04:47:55;;;;;;;3.55;2.65;;;;;;;;;;5007888;28;99421;-78
2022/04/02 04:50:23;;;;;;;3.65;3.00;;;;;;;;;;5005548;28;101146;-78
2022/04/02 04:52:54;;;;;;;4.15;3.75;;;;;;;;;;5008210;28;98934;-78
2022/04/02 04:55:21;;;;;;;3.03;2.72;;;;;;;;;;5009889;28;100952;-78
2022/04/02 04:57:48;;;;;;;3.85;3.55;;;;;;;;;;5006693;28;98644;-78
2022/04/02 05:00:22;;;;;;;3.95;3.60;;;;;;;;;;5006765;28;101305;-78
2022/04/02 05:02:49;;;;;;;7.53;4.10;;;;;;;;;;5007402;28;98707;-78
2022/04/02 05:05:21;;;;;;;6.40;3.77;;;;;;;;;;5006223;28;98990;-78
2022/04/02 05:07:58;;;;;;;4.05;3.65;;;;;;;;;;5007145;28;101185;-78
2022/04/02 05:10:24;;;;;;;4.25;3.88;;;;;;;;;;5007047;28;100382;-78
2022/04/02 05:12:52;;;;;;;4.80;3.63;;;;;;;;;;5006026;28;98671;-78
2022/04/02 05:15:19;;;;;;;3.97;3.08;;;;;;;;;;5010059;28;100306;-78
2022/04/02 05:17:46;;;;;;;8.48;3.33;;;;;;;;;;5023053;27;98558;-78
2022/04/02 05:20:14;;;;;;;4.75;4.25;;;;;;;;;;5005719;28;101633;-78
2022/04/02 05:22:43;;;;;;;4.72;2.97;;;;;;;;;;5006088;28;101375;-78
2022/04/02 05:25:14;;;;;;;3.22;2.90;;;;;;;;;;5006423;28;100037;-79
2022/04/02 05:27:43;;;;;;;10.90;3.40;;;;;;;;;;5007223;28;101440;-78
2022/04/02 05:30:11;;;;;;;7.55;4.05;;;;;;;;;;5005782;28;100485;-79
2022/04/02 05:32:38;;;;;;;4.03;3.72;;;;;;;;;;5005970;28;98574;-78
2022/04/02 05:35:04;;;;;;;6.88;4.43;;;;;;;;;;5005414;28;101697;-78
2022/04/02 05:37:30;;;;;;;8.40;4.38;;;;;;;;;;5010501;28;99717;-79
2022/04/02 05:39:57;;;;;;;4.25;3.95;;;;;;;;;;5007566;28;98835;-79
2022/04/02 05:42:23;;;;;;;4.43;4.00;;;;;;;;;;5005741;28;102299;-79
2022/04/02 05:44:50;;;;;;;11.65;4.93;;;;;;;;;;5007069;28;98675;-78
2022/04/02 05:47:16;;;;;;;8.85;4.20;;;;;;;;;;5006638;28;99125;-79
2022/04/02 05:49:45;;;;;;;7.78;4.70;;;;;;;;;;5007457;28;100066;-79
2022/04/02 05:52:11;;;;;;;8.05;5.50;;;;;;;;;;5002519;28;98153;-79
2022/04/02 05:54:38;;;;;;;5.95;4.90;;;;;;;;;;5006908;28;99225;-79
2022/04/02 05:57:04;;;;;;;11.65;5.28;;;;;;;;;;4988218;28;100135;-78
2022/04/02 05:59:32;;;;;;;9.55;5.15;;;;;;;;;;4990923;28;99298;-78
2022/04/02 06:01:58;;;;;;;6.55;4.72;;;;;;;;;;5006433;28;100366;-78
2022/04/02 06:04:25;;;;;;;6.70;4.50;;;;;;;;;;5008407;28;98807;-78
2022/04/02 06:06:52;;;;;;;7.78;3.90;;;;;;;;;;5005828;28;99096;-78
2022/04/02 06:09:18;;;;;;;3.85;3.55;;;;;;;;;;5006344;28;100371;-79
2022/04/02 06:11:45;;;;;;;4.03;3.63;;;;;;;;;;5008426;28;98722;-79
2022/04/02 06:14:13;;;;;;;4.10;3.17;;;;;;;;;;5011406;28;99963;-78
2022/04/02 06:16:43;;;;;;;4.40;3.55;;;;;;;;;;5010405;28;99857;-77
2022/04/02 06:19:10;;;;;;;5.38;3.15;;;;;;;;;;5011405;28;98566;-79
2022/04/02 06:21:36;;;;;;;4.70;2.80;;;;;;;;;;5013083;28;99972;-81
2022/04/02 06:24:06;;;;;;;3.40;3.17;;;;;;;;;;5009417;28;100634;-85
2022/04/02 06:26:32;;;;;;;3.75;2.90;;;;;;;;;;5011469;28;100659;-81
2022/04/02 06:28:59;;;;;;;3.00;2.80;;;;;;;;;;5009693;28;100502;-80
2022/04/02 06:31:25;;;;;;;5.13;3.00;;;;;;;;;;5011331;28;98570;-79
2022/04/02 06:33:52;;;;;;;3.47;3.17;;;;;;;;;;5009344;28;101810;-79
2022/04/02 06:36:19;;;;;;;3.60;3.30;;;;;;;;;;5008850;28;101872;-80
2022/04/02 06:38:46;;;;;;;8.20;3.05;;;;;;;;;;5007414;28;98935;-80
2022/04/02 06:41:12;;;;;;;1.90;1.80;;;;;;;;;;5010893;28;102346;-80
2022/04/02 06:43:39;;;;;;;5.85;3.10;;;;;;;;;;5012494;28;100235;-82
2022/04/02 06:46:09;;;;;;;6.90;3.08;;;;;;;;;;5010962;28;99793;-77
2022/04/02 06:48:36;;;;;;;5.88;2.88;;;;;;;;;;5008252;28;102890;-81
2022/04/02 06:51:03;;;;;;;9.18;3.15;;;;;;;;;;5010680;28;98532;-80
2022/04/02 06:53:29;;;;;;;5.45;3.30;;;;;;;;;;5009555;28;99989;-80
2022/04/02 06:55:56;;;;;;;7.35;3.42;;;;;;;;;;5009472;28;100548;-80
2022/04/02 06:58:25;;;;;;;6.85;3.38;;;;;;;;;;5009876;28;98603;-80
2022/04/02 07:00:52;;;;;;;4.95;3.17;;;;;;;;;;5011629;28;100010;-81
2022/04/02 07:03:18;;;;;;;9.63;3.88;;;;;;;;;;5010959;28;99638;-80
2022/04/02 07:05:45;;;;;;;2.85;2.20;;;;;;;;;;5012559;28;97865;-80
2022/04/02 07:08:11;;;;;;;3.22;3.00;;;;;;;;;;5007358;28;100303;-80
2022/04/02 07:10:38;;;;;;;4.05;3.38;;;;;;;;;;5009494;28;99218;-80
2022/04/02 07:13:04;;;;;;;8.65;3.42;;;;;;;;;;5009233;28;99933;-80
2022/04/02 07:15:30;;;;;;;3.38;3.13;;;;;;;;;;5009176;28;100603;-80
2022/04/02 07:17:58;;;;;;;6.60;3.40;;;;;;;;;;5010472;28;98581;-77
2022/04/02 07:20:26;;;;;;;8.02;2.80;;;;;;;;;;5009414;28;99736;-80
2022/04/02 07:22:53;;;;;;;3.60;2.63;;;;;;;;;;5005651;28;100404;-82
2022/04/02 07:25:20;;;;;;;5.60;3.05;;;;;;;;;;5011841;28;98714;-80
2022/04/02 07:27:46;;;;;;;3.63;3.42;;;;;;;;;;5004923;28;100547;-74
2022/04/02 07:30:14;;;;;;;4.80;3.17;;;;;;;;;;5010581;28;97741;-80
2022/04/02 07:32:40;;;;;;;2.35;2.03;;;;;;;;;;5006488;28;99373;-78
2022/04/02 07:35:07;;;;;;;4.90;3.05;;;;;;;;;;5007244;28;100304;-79
2022/04/02 07:37:40;;;;;;;3.53;3.10;;;;;;;;;;5005478;28;100870;-78
2022/04/02 07:40:27;;;;;;;2.17;1.98;;;;;;;;;;5008635;28;101202;-78
2022/04/02 07:43:02;;;;;;;4.03;2.97;;;;;;;;;;5009610;27;101892;-79
2022/04/02 07:45:32;;;;;;;4.75;2.58;;;;;;;;;;5007845;28;98706;-79
2022/04/02 07:48:00;;;;;;;3.90;3.53;;;;;;;;;;5009900;28;98967;-81
2022/04/02 07:50:27;;;;;;;5.72;3.35;;;;;;;;;;5010058;28;98812;-79
2022/04/02 07:52:54;;;;;;;4.18;3.33;;;;;;;;;;5004071;28;100200;-81
2022/04/02 07:55:24;;;;;;;6.88;2.92;;;;;;;;;;5008005;28;100701;-80
2022/04/02 07:57:53;;;;;;;4.63;2.63;;;;;;;;;;5006217;28;98656;-81
2022/04/02 08:00:21;;;;;;;3.80;2.75;;;;;;;;;;5009210;28;100154;-80
2022/04/02 08:02:49;;;;;;;5.43;3.38;;;;;;;;;;5006656;28;100232;-80
2022/04/02 08:05:20;;;;;;;4.97;3.30;;;;;;;;;;5008667;28;98635;-80
2022/04/02 08:07:50;;;;;;;3.08;2.83;;;;;;;;;;5006986;28;100643;-80
2022/04/02 08:10:17;;;;;;;5.00;3.30;;;;;;;;;;5010606;28;100162;-80
2022/04/02 08:12:47;;;;;;;3.88;2.90;;;;;;;;;;5003650;28;100498;-81
2022/04/02 08:15:16;;;;;;;8.60;2.97;;;;;;;;;;5004893;28;100602;-81
2022/04/02 08:17:43;;;;;;;2.92;2.70;;;;;;;;;;5007351;28;98616;-80
2022/04/02 08:20:11;;;;;;;2.60;2.40;;;;;;;;;;5004902;28;101723;-81
2022/04/02 08:22:38;;;;;;;4.22;3.20;;;;;;;;;;5010462;28;100244;-83
2022/04/02 08:25:04;;;;;;;4.35;3.25;;;;;;;;;;5011070;28;98630;-80
2022/04/02 08:27:37;;;;;;;4.70;3.72;;;;;;;;;;5008578;28;100171;-80
2022/04/02 08:30:09;;;;;;;5.72;2.67;;;;;;;;;;5005698;28;100224;-82
2022/04/02 08:32:38;;;;;;;4.47;3.35;;;;;;;;;;5011678;28;98630;-82
2022/04/02 08:35:08;;;;;;;3.13;2.60;;;;;;;;;;5008646;28;100543;-81
2022/04/02 08:37:53;;;;;;;3.05;2.70;;;;;;;;;;5000986;28;99001;-81
2022/04/02 08:40:44;;;;;;;3.70;2.47;;;;;;;;;;5004950;28;100028;-82
2022/04/02 08:43:22;;;;;;;7.70;2.67;;;;;;;;;;5001266;28;100588;-82
2022/04/02 08:45:55;;;;;;;2.72;2.53;;;;;;;;;;5008900;28;98173;-82
2022/04/02 08:48:28;;;;;;;3.72;3.22;;;;;;;;;;5009751;28;99025;-80
2022/04/02 08:51:02;;;;;;;6.95;3.72;;;;;;;;;;5007476;28;100438;-81
2022/04/02 08:53:49;;;;;;;5.03;3.17;;;;;;;;;;5008729;28;100467;-82
2022/04/02 08:56:17;;;;;;;2.75;2.55;;;;;;;;;;5011672;28;100910;-77
2022/04/02 08:59:04;;;;;;;7.45;2.92;;;;;;;;;;4997321;28;99091;-80
2022/04/02 09:01:45;;;;;;;5.65;3.53;;;;;;;;;;5004649;28;101006;-80
2022/04/02 09:04:14;;;;;;;5.45;3.17;;;;;;;;;;4990085;28;100241;-79
2022/04/02 09:06:41;;;;;;;5.60;3.30;;;;;;;;;;5007150;28;99396;-80
2022/04/02 09:09:08;;;;;;;3.60;2.63;;;;;;;;;;5012176;28;99252;-79
2022/04/02 09:11:48;;;;;;;4.88;2.95;;;;;;;;;;5028584;27;99358;-81
2022/04/02 09:14:18;;;;;;;2.95;2.67;;;;;;;;;;5016433;27;98539;-79
2022/04/02 09:16:56;;;;;;;2.78;2.58;;;;;;;;;;5012282;28;99239;-80
2022/04/02 09:19:38;;;;;;;6.75;3.45;;;;;;;;;;5007208;28;99854;-80
2022/04/02 09:22:06;;;;;;;10.85;3.92;;;;;;;;;;5008807;28;101064;-79
2022/04/02 09:24:42;;;;;;;6.15;3.88;;;;;;;;;;5008113;28;100135;-80
2022/04/02 09:27:14;;;;;;;4.55;2.40;;;;;;;;;;5007016;28;98716;-81
2022/04/02 09:29:43;;;;;;;3.05;2.58;;;;;;;;;;5007577;28;99917;-80
2022/04/02 09:32:37;;;;;;;4.88;2.90;;;;;;;;;;5004429;28;100556;-80
2022/04/02 09:35:06;;;;;;;3.67;3.33;;;;;;;;;;5008748;28;98522;-80
2022/04/02 09:37:33;;;;;;;8.98;3.30;;;;;;;;;;5007475;28;99183;-80
2022/04/02 09:40:03;;;;;;;2.65;2.38;;;;;;;;;;5007725;28;100693;-80
2022/04/02 09:42:30;;;;;;;5.97;3.47;;;;;;;;;;5005025;28;99964;-79
2022/04/02 09:44:58;;;;;;;5.95;2.80;;;;;;;;;;5004750;28;100995;-80
2022/04/02 09:47:36;;;;;;;2.90;2.70;;;;;;;;;;5003370;28;98675;-79
2022/04/02 09:50:13;;;;;;;5.05;3.33;;;;;;;;;;5002049;28;99961;-79
2022/04/02 09:52:43;;;;;;;6.32;2.53;;;;;;;;;;5014073;28;100388;-80
2022/04/02 09:55:15;;;;;;;2.88;2.55;;;;;;;;;;5003192;28;99522;-77
2022/04/02 09:57:44;;;;;;;8.05;3.30;;;;;;;;;;5005484;27;100205;-80
2022/04/02 10:00:13;;;;;;;6.00;3.40;;;;;;;;;;5008449;28;100452;-81
2022/04/02 10:02:54;;;;;;;3.47;2.95;;;;;;;;;;5013946;28;98636;-80
2022/04/02 10:05:23;;;;;;;6.78;3.05;;;;;;;;;;5005525;28;100147;-81
2022/04/02 10:07:55;;;;;;;4.30;2.47;;;;;;;;;;5008417;28;98598;-79
2022/04/02 10:10:25;;;;;;;4.35;2.70;;;;;;;;;;5010343;28;100883;-80
2022/04/02 10:12:52;;;;;;;4.60;3.08;;;;;;;;;;5008730;28;100424;-81
2022/04/02 10:15:19;;;;;;;4.68;2.80;;;;;;;;;;5010853;28;98607;-81
2022/04/02 10:17:50;;;;;;;2.47;2.30;;;;;;;;;;5008225;28;99948;-81
2022/04/02 10:20:18;;;;;;;3.03;2.72;;;;;;;;;;5008176;28;100343;-82
2022/04/02 10:22:45;;;;;;;3.63;2.40;;;;;;;;;;5009301;28;98610;-81
2022/04/02 10:25:13;;;;;;;3.88;2.55;;;;;;;;;;5013546;28;99850;-80
2022/04/02 10:27:40;;;;;;;2.58;2.38;;;;;;;;;;5008846;28;98217;-81
2022/04/02 10:30:07;;;;;;;5.82;2.72;;;;;;;;;;5010765;28;99096;-79
2022/04/02 10:32:52;;;;;;;1.90;1.80;;;;;;;;;;5009386;28;100236;-80
2022/04/02 10:35:23;;;;;;;1.88;1.77;;;;;;;;;;5010023;28;99314;-79
2022/04/02 10:38:05;;;;;;;3.22;2.35;;;;;;;;;;5003977;28;101193;-79
2022/04/02 10:40:40;;;;;;;6.28;2.25;;;;;;;;;;5010257;28;100314;-79
2022/04/02 10:43:12;;;;;;;2.83;1.88;;;;;;;;;;5008423;28;98904;-80
2022/04/02 10:45:39;;;;;;;10.27;1.95;;;;;;;;;;5010309;28;99574;-79
2022/04/02 10:48:13;;;;;;;3.00;1.70;;;;;;;;;;5011834;28;100426;-77
2022/04/02 10:50:40;;;;;;;3.22;2.30;;;;;;;;;;5008807;28;99252;-81
2022/04/02 10:53:10;;;;;;;2.63;2.42;;;;;;;;;;5006255;28;100117;-80
2022/04/02 10:55:45;;;;;;;2.95;2.25;;;;;;;;;;4992302;28;98651;-79
2022/04/02 10:58:12;;;;;;;2.65;2.45;;;;;;;;;;4997510;28;100075;-79
2022/04/02 11:00:43;;;;;;;3.60;2.60;;;;;;;;;;5009486;28;100807;-80
2022/04/02 11:03:15;;;;;;;3.17;2.70;;;;;;;;;;5009382;28;98552;-79
2022/04/02 11:05:42;;;;;;;4.28;2.90;;;;;;;;;;5010386;28;100020;-80
2022/04/02 11:08:10;;;;;;;3.30;2.83;;;;;;;;;;5009015;28;99753;-79
2022/04/02 11:10:36;;;;;;;2.97;2.58;;;;;;;;;;5012850;28;99063;-79
2022/04/02 11:13:04;;;;;;;2.63;2.05;;;;;;;;;;4996708;28;100396;-80
2022/04/02 11:15:38;;;;;;;3.80;2.78;;;;;;;;;;4999953;28;100290;-79
2022/04/02 11:18:14;;;;;;;2.22;1.70;;;;;;;;;;5008492;28;99555;-79
2022/04/02 11:20:42;;;;;;;3.72;1.90;;;;;;;;;;5006005;28;100703;-78
2022/04/02 11:23:33;;;;;;;2.80;1.92;;;;;;;;;;5008322;28;100283;-79
2022/04/02 11:26:01;;;;;;;1.98;1.88;;;;;;;;;;5013128;28;99878;-79
2022/04/02 11:28:35;;;;;;;2.90;1.40;;;;;;;;;;5004397;28;100003;-78
2022/04/02 11:31:03;;;;;;;3.40;1.70;;;;;;;;;;5014056;28;98554;-78
2022/04/02 11:33:32;;;;;;;2.75;1.95;;;;;;;;;;5007254;28;100289;-79
2022/04/02 11:35:59;;;;;;;4.63;1.85;;;;;;;;;;5007665;28;98731;-79
2022/04/02 11:38:30;;;;;;;2.15;1.58;;;;;;;;;;5007443;28;100013;-79
2022/04/02 11:41:01;;;;;;;3.05;1.77;;;;;;;;;;5006536;28;100428;-77
2022/04/02 11:43:35;;;;;;;1.60;1.42;;;;;;;;;;5010052;28;98196;-78
2022/04/02 11:46:03;;;;;;;1.55;1.48;;;;;;;;;;5008150;28;99023;-78
2022/04/02 11:48:32;;;;;;;2.45;1.80;;;;;;;;;;5007185;28;100043;-79
2022/04/02 11:51:12;;;;;;;2.00;1.80;;;;;;;;;;5008611;28;99467;-78
2022/04/02 11:53:38;;;;;;;1.98;1.60;;;;;;;;;;5027266;28;102606;-79
2022/04/02 11:56:21;;;;;;;2.40;1.80;;;;;;;;;;4990410;28;98516;-78
2022/04/02 11:58:48;;;;;;;1.70;1.60;;;;;;;;;;5005985;28;100334;-79
2022/04/02 12:01:14;;;;;;;1.92;1.77;;;;;;;;;;5006327;28;100670;-77
2022/04/02 12:03:41;;;;;;;2.92;1.67;;;;;;;;;;5005062;28;99474;-78
2022/04/02 12:06:11;;;;;;;3.33;1.60;;;;;;;;;;5010103;28;99933;-79
2022/04/02 12:08:38;;;;;;;2.85;1.70;;;;;;;;;;5005121;28;99577;-78
2022/04/02 12:11:08;;;;;;;2.00;1.25;;;;;;;;;;5007723;28;98890;-79
2022/04/02 12:13:34;;;;;;;5.43;1.67;;;;;;;;;;5008050;28;99989;-79
2022/04/02 12:16:13;;;;;;;1.27;1.27;;;;;;;;;;5011012;28;100640;-79
2022/04/02 12:18:54;;;;;;;1.73;1.63;;;;;;;;;;4996620;28;100733;-79
2022/04/02 12:21:30;;;;;;;1.77;1.67;;;;;;;;;;5005288;27;99376;-79
2022/04/02 12:23:57;;;;;;;1.67;1.20;;;;;;;;;;5006977;28;99355;-79
2022/04/02 12:26:24;;;;;;;2.95;1.63;;;;;;;;;;5009429;28;100257;-79
2022/04/02 12:28:55;;;;;;;2.67;2.10;;;;;;;;;;5006463;28;100174;-78
2022/04/02 12:31:22;;;;;;;1.80;1.40;;;;;;;;;;5000793;28;98642;-80
2022/04/02 12:33:51;;;;;;;1.73;1.58;;;;;;;;;;5001693;28;100431;-80
2022/04/02 12:36:18;;;;;;;3.22;2.08;;;;;;;;;;5001604;28;100295;-79
2022/04/02 12:38:47;;;;;;;2.35;1.80;;;;;;;;;;5011566;28;99179;-79
2022/04/02 12:41:20;;;;;;;3.60;2.10;;;;;;;;;;5007292;28;101233;-78
2022/04/02 12:43:48;;;;;;;2.75;2.33;;;;;;;;;;5000198;28;100035;-80
2022/04/02 12:46:23;;;;;;;4.43;1.83;;;;;;;;;;5009528;27;99809;-79
2022/04/02 12:48:49;;;;;;;3.70;1.58;;;;;;;;;;5006018;28;100961;-80
2022/04/02 12:51:16;;;;;;;3.20;2.13;;;;;;;;;;5009060;28;98580;-77
2022/04/02 12:53:44;;;;;;;1.63;1.52;;;;;;;;;;5009656;28;98901;-78
2022/04/02 12:56:16;;;;;;;4.03;2.28;;;;;;;;;;5007546;28;100736;-79
2022/04/02 12:58:46;;;;;;;2.03;1.93;;;;;;;;;;5010270;28;97835;-79
2022/04/02 13:01:15;;;;;;;2.00;1.80;;;;;;;;;;5010410;28;99181;-79
2022/04/02 13:03:54;;;;;;;4.40;2.10;;;;;;;;;;5008235;28;99014;-78
2022/04/02 13:06:21;;;;;;;2.58;1.80;;;;;;;;;;5008313;28;99671;-80
2022/04/02 13:08:56;;;;;;;3.25;2.13;;;;;;;;;;5008468;28;100651;-79
2022/04/02 13:11:37;;;;;;;1.70;1.60;;;;;;;;;;5007591;28;98611;-78
2022/04/02 13:14:12;;;;;;;2.22;2.10;;;;;;;;;;5007590;28;100147;-80
2022/04/02 13:16:43;;;;;;;2.30;2.00;;;;;;;;;;4996267;28;100904;-80
2022/04/02 13:22:02;;;;;;;3.13;1.83;;;;;;;;;;5007650;28;100335;-79
2022/04/02 13:24:29;;;;;;;3.47;1.80;;;;;;;;;;5011204;28;99757;-80
2022/04/02 13:27:08;;;;;;;2.90;2.10;;;;;;;;;;5008711;28;99286;-79
2022/04/02 13:29:53;;;;;;;2.67;1.90;;;;;;;;;;5008801;28;99956;-79
2022/04/02 13:32:23;;;;;;;3.17;1.80;;;;;;;;;;5006979;28;99727;-79
2022/04/02 13:35:08;;;;;;;1.40;1.35;;;;;;;;;;5008729;28;100771;-81
2022/04/02 13:37:52;;;;;;;1.80;1.70;;;;;;;;;;5008003;28;100456;-80
2022/04/02 13:40:19;;;;;;;4.03;2.30;;;;;;;;;;4999282;28;99143;-79
2022/04/02 13:42:55;;;;;;;3.10;1.90;;;;;;;;;;5004804;28;99914;-79
2022/04/02 13:45:24;;;;;;;3.03;1.77;;;;;;;;;;5001572;28;100108;-79
2022/04/02 13:48:03;;;;;;;5.22;2.40;;;;;;;;;;5000284;28;99732;-79
2022/04/02 13:50:30;;;;;;;2.20;1.90;;;;;;;;;;5007123;28;100738;-79
2022/04/02 13:53:02;;;;;;;2.08;1.98;;;;;;;;;;5006589;27;99145;-80
2022/04/02 13:55:30;;;;;;;3.83;1.60;;;;;;;;;;5003063;28;100089;-79
2022/04/02 13:58:01;;;;;;;2.55;2.35;;;;;;;;;;5006117;28;101061;-80
2022/04/02 14:00:32;;;;;;;4.00;2.65;;;;;;;;;;5006916;28;99004;-80
2022/04/02 14:02:59;;;;;;;2.42;2.08;;;;;;;;;;5002055;28;99956;-80
2022/04/02 14:05:27;;;;;;;2.00;1.55;;;;;;;;;;5006263;28;100557;-80
2022/04/02 14:08:00;;;;;;;2.67;1.10;;;;;;;;;;5009661;28;98598;-80
2022/04/02 14:10:39;;;;;;;3.05;2.22;;;;;;;;;;5002077;28;100206;-78
2022/04/02 14:13:10;;;;;;;2.65;1.77;;;;;;;;;;5004661;28;98561;-78
2022/04/02 14:15:39;;;;;;;4.55;1.70;;;;;;;;;;5006387;28;100527;-76
2022/04/02 14:18:08;;;;;;;3.10;2.10;;;;;;;;;;5003344;28;100710;-76
2022/04/02 14:20:34;;;;;;;6.25;1.85;;;;;;;;;;4998713;28;99301;-78
2022/04/02 14:23:13;;;;;;;2.47;1.70;;;;;;;;;;5005866;28;100415;-78
2022/04/02 14:25:58;;;;;;;1.73;1.63;;;;;;;;;;5004123;28;100221;-77
2022/04/02 14:28:42;;;;;;;2.22;1.90;;;;;;;;;;5002290;28;98971;-77
2022/04/02 14:31:27;;;;;;;3.78;1.80;;;;;;;;;;5008635;28;100013;-77
2022/04/02 14:34:08;;;;;;;2.28;2.03;;;;;;;;;;5007908;28;99885;-77
2022/04/02 14:36:40;;;;;;;3.03;1.92;;;;;;;;;;5015384;28;99736;-77
2022/04/02 14:39:25;;;;;;;3.75;2.03;;;;;;;;;;5031184;27;99721;-78
2022/04/02 14:42:09;;;;;;;2.78;1.73;;;;;;;;;;5009116;28;99313;-78
2022/04/02 14:44:41;;;;;;;1.80;1.70;;;;;;;;;;5008426;28;99285;-80
2022/04/02 14:47:33;;;;;;;3.70;1.45;;;;;;;;;;5008208;28;100253;-79
2022/04/02 14:50:18;;;;;;;3.28;1.80;;;;;;;;;;5006438;28;99372;-79
2022/04/02 14:53:03;;;;;;;2.10;1.77;;;;;;;;;;5009519;28;100658;-78
2022/04/02 14:55:49;;;;;;;4.80;2.28;;;;;;;;;;5011767;28;100174;-75
2022/04/02 14:58:34;;;;;;;8.77;3.05;;;;;;;;;;5007753;28;100000;-77
2022/04/02 15:01:03;;;;;;;2.67;1.80;;;;;;;;;;5001008;28;99464;-78